createdAt,value
2018-05-10T00:01:17.768Z,12.37
2018-05-10T00:03:48.950Z,11.37
2018-05-10T00:06:20.162Z,9.90
2018-05-10T00:08:51.445Z,10.43
2018-05-10T00:11:22.705Z,9.63
2018-05-10T00:13:53.894Z,10.43
2018-05-10T00:16:25.876Z,12.47
2018-05-10T00:18:57.340Z,12.17
2018-05-10T00:21:28.781Z,12.20
2018-05-10T00:23:59.942Z,10.67
2018-05-10T00:26:31.193Z,10.43
2018-05-10T00:29:02.413Z,11.87
2018-05-10T00:31:33.635Z,13.57
2018-05-10T00:34:05.586Z,10.00
2018-05-10T00:36:36.830Z,9.87
2018-05-10T00:39:08.048Z,8.17
2018-05-10T00:41:39.276Z,10.40
2018-05-10T00:44:10.462Z,13.60
2018-05-10T00:46:42.367Z,9.17
2018-05-10T00:49:14.025Z,12.13
2018-05-10T00:51:45.458Z,13.13
2018-05-10T00:54:28.954Z,12.63
2018-05-10T00:57:00.905Z,10.10
2018-05-10T00:59:32.109Z,10.40
2018-05-10T01:02:03.344Z,11.83
2018-05-10T01:04:34.512Z,11.43
2018-05-10T01:07:05.735Z,11.30
2018-05-10T01:09:37.348Z,9.77
2018-05-10T01:12:09.264Z,10.97
2018-05-10T01:14:40.485Z,12.03
2018-05-10T01:17:11.686Z,9.63
2018-05-10T01:19:42.886Z,10.13
2018-05-10T01:22:14.176Z,12.37
2018-05-10T01:24:46.146Z,10.43
2018-05-10T01:27:17.376Z,10.13
2018-05-10T01:29:48.672Z,10.80
2018-05-10T01:32:19.908Z,15.90
2018-05-10T01:35:03.504Z,10.57
2018-05-10T01:37:35.459Z,13.43
2018-05-10T01:40:06.701Z,11.10
2018-05-10T01:42:37.915Z,10.90
2018-05-10T01:45:09.067Z,10.33
2018-05-10T01:47:40.275Z,13.43
2018-05-10T01:50:11.568Z,9.17
2018-05-10T01:52:42.774Z,11.90
2018-05-10T01:55:14.203Z,11.33
2018-05-10T01:57:46.106Z,11.20
2018-05-10T02:00:17.412Z,11.60
2018-05-10T02:02:48.638Z,10.13
2018-05-10T02:05:20.602Z,9.47
2018-05-10T02:07:52.775Z,10.60
2018-05-10T02:10:24.778Z,9.87
2018-05-10T02:12:55.994Z,12.37
2018-05-10T02:15:27.195Z,9.97
2018-05-10T02:17:58.595Z,11.63
2018-05-10T02:20:29.811Z,10.10
2018-05-10T02:23:01.713Z,11.33
2018-05-10T02:25:32.926Z,8.73
2018-05-10T02:28:04.161Z,11.23
2018-05-10T02:30:36.152Z,8.13
2018-05-10T02:33:07.318Z,9.10
2018-05-10T02:35:53.727Z,13.13
2018-05-10T02:38:24.958Z,11.47
2018-05-10T02:40:56.163Z,10.03
2018-05-10T02:43:27.342Z,8.23
2018-05-10T02:45:58.518Z,11.67
2018-05-10T02:48:31.164Z,12.17
2018-05-10T02:51:02.496Z,9.93
2018-05-10T02:53:33.684Z,11.33
2018-05-10T02:56:04.889Z,12.73
2018-05-10T02:58:36.086Z,14.17
2018-05-10T03:01:07.334Z,10.90
2018-05-10T03:03:39.264Z,12.57
2018-05-10T03:06:10.765Z,8.93
2018-05-10T03:08:41.958Z,10.37
2018-05-10T03:11:13.282Z,12.77
2018-05-10T03:13:44.461Z,14.97
2018-05-10T03:16:15.690Z,9.20
2018-05-10T03:18:46.975Z,9.57
2018-05-10T03:21:18.150Z,9.90
2018-05-10T03:23:49.510Z,10.50
2018-05-10T03:26:20.746Z,9.63
2018-05-10T03:28:52.002Z,12.43
2018-05-10T03:31:23.195Z,9.97
2018-05-10T03:33:54.425Z,14.10
2018-05-10T03:36:26.355Z,10.77
2018-05-10T03:38:57.559Z,10.63
2018-05-10T03:41:28.780Z,10.87
2018-05-10T03:44:00.024Z,9.90
2018-05-10T03:46:31.560Z,10.67
2018-05-10T03:49:02.754Z,9.47
2018-05-10T03:51:34.016Z,8.63
2018-05-10T03:54:05.202Z,9.93
2018-05-10T03:56:37.503Z,9.00
2018-05-10T03:59:08.745Z,10.23
2018-05-10T04:01:39.949Z,13.83
2018-05-10T04:04:33.050Z,11.73
2018-05-10T04:07:16.869Z,11.30
2018-05-10T04:10:00.269Z,10.93
2018-05-10T04:12:31.607Z,10.27
2018-05-10T04:15:04.648Z,10.47
2018-05-10T04:17:35.864Z,9.23
2018-05-10T04:20:07.843Z,9.93
2018-05-10T04:22:39.014Z,10.80
2018-05-10T04:25:10.280Z,8.47
2018-05-10T04:27:41.481Z,8.87
2018-05-10T04:30:13.046Z,9.87
2018-05-10T04:32:44.257Z,16.63
2018-05-10T04:35:15.654Z,10.20
2018-05-10T04:37:46.867Z,11.87
2018-05-10T04:40:18.053Z,12.10
2018-05-10T04:42:49.558Z,8.90
2018-05-10T04:45:20.744Z,8.03
2018-05-10T04:47:51.944Z,10.40
2018-05-10T04:50:23.185Z,11.00
2018-05-10T04:52:54.840Z,12.40
2018-05-10T04:55:26.018Z,11.73
2018-05-10T04:57:57.236Z,9.30
2018-05-10T05:00:28.428Z,12.13
2018-05-10T05:02:59.651Z,9.17
2018-05-10T05:05:30.794Z,10.07
2018-05-10T05:08:02.037Z,11.93
2018-05-10T05:10:33.221Z,10.43
2018-05-10T05:13:04.551Z,9.97
2018-05-10T05:15:35.745Z,9.60
2018-05-10T05:18:07.264Z,14.13
2018-05-10T05:20:38.425Z,8.90
2018-05-10T05:23:09.982Z,10.87
2018-05-10T05:25:41.188Z,9.37
2018-05-10T05:28:12.369Z,9.33
2018-05-10T05:30:43.586Z,11.57
2018-05-10T05:33:14.841Z,10.10
2018-05-10T05:35:46.084Z,12.17
2018-05-10T05:38:18.094Z,9.83
2018-05-10T05:40:49.516Z,9.07
2018-05-10T05:43:20.761Z,9.13
2018-05-10T05:45:52.672Z,11.87
2018-05-10T05:48:23.925Z,10.50
2018-05-10T05:50:55.083Z,12.40
2018-05-10T05:53:27.131Z,9.43
2018-05-10T05:55:58.292Z,14.57
2018-05-10T05:58:30.388Z,9.47
2018-05-10T06:01:01.557Z,10.83
2018-05-10T06:03:33.342Z,11.03
2018-05-10T06:06:04.520Z,12.93
2018-05-10T06:08:35.805Z,11.33
2018-05-10T06:11:07.753Z,9.40
2018-05-10T06:13:39.068Z,9.60
2018-05-10T06:16:10.249Z,9.03
2018-05-10T06:18:41.449Z,11.93
2018-05-10T06:21:13.405Z,13.80
2018-05-10T06:23:45.314Z,10.73
2018-05-10T06:26:16.512Z,12.57
2018-05-10T06:28:47.688Z,10.43
2018-05-10T06:31:18.938Z,11.07
2018-05-10T06:33:50.217Z,9.00
2018-05-10T06:36:21.503Z,12.10
2018-05-10T06:38:52.783Z,10.57
2018-05-10T06:41:24.195Z,10.57
2018-05-10T06:43:55.388Z,11.00
2018-05-10T06:46:26.557Z,12.50
2018-05-10T06:48:58.873Z,12.70
2018-05-10T06:51:30.068Z,10.70
2018-05-10T06:54:02.275Z,11.47
2018-05-10T06:56:33.455Z,13.37
2018-05-10T06:59:05.005Z,9.43
2018-05-10T07:01:36.399Z,13.53
2018-05-10T07:04:07.549Z,12.80
2018-05-10T07:06:38.721Z,12.83
2018-05-10T07:09:09.905Z,11.57
2018-05-10T07:11:41.822Z,11.20
2018-05-10T07:14:13.070Z,11.77
2018-05-10T07:16:44.314Z,10.57
2018-05-10T07:19:16.264Z,10.93
2018-05-10T07:21:47.446Z,15.57
2018-05-10T07:24:18.795Z,12.87
2018-05-10T07:26:50.053Z,10.77
2018-05-10T07:29:21.947Z,13.70
2018-05-10T07:31:53.169Z,10.57
2018-05-10T07:34:24.396Z,12.17
2018-05-10T07:36:55.623Z,11.17
2018-05-10T07:39:27.662Z,8.87
2018-05-10T07:41:58.899Z,12.87
2018-05-10T07:44:30.215Z,14.00
2018-05-10T07:47:01.382Z,12.53
2018-05-10T07:49:32.609Z,11.53
2018-05-10T07:52:03.855Z,13.80
2018-05-10T07:54:35.891Z,10.73
2018-05-10T07:57:07.842Z,13.17
2018-05-10T07:59:39.068Z,11.30
2018-05-10T08:02:10.317Z,9.90
2018-05-10T08:04:41.501Z,12.77
2018-05-10T08:07:12.743Z,11.73
2018-05-10T08:09:43.961Z,10.90
2018-05-10T08:12:15.169Z,10.10
2018-05-10T08:14:46.366Z,13.40
2018-05-10T08:17:18.479Z,10.60
2018-05-10T08:19:49.996Z,11.00
2018-05-10T08:22:21.146Z,11.83
2018-05-10T08:24:52.380Z,12.13
2018-05-10T08:27:23.768Z,10.57
2018-05-10T08:29:55.196Z,11.27
2018-05-10T08:32:26.351Z,10.70
2018-05-10T08:34:57.809Z,12.27
2018-05-10T08:37:29.026Z,12.10
2018-05-10T08:40:00.284Z,12.87
2018-05-10T08:42:31.510Z,10.30
2018-05-10T08:45:02.798Z,11.40
2018-05-10T08:47:34.245Z,11.47
2018-05-10T08:50:05.573Z,14.07
2018-05-10T08:52:36.758Z,13.73
2018-05-10T08:55:08.061Z,8.67
2018-05-10T08:57:39.254Z,8.43
2018-05-10T09:00:11.163Z,8.40
2018-05-10T09:02:42.320Z,14.80
2018-05-10T09:05:13.511Z,8.80
2018-05-10T09:07:44.746Z,11.03
2018-05-10T09:10:16.669Z,10.80
2018-05-10T09:12:47.865Z,9.23
2018-05-10T09:15:19.134Z,9.47
2018-05-10T09:17:50.657Z,11.90
2018-05-10T09:20:21.927Z,9.97
2018-05-10T09:22:53.163Z,8.73
2018-05-10T09:25:24.402Z,11.80
2018-05-10T09:27:55.620Z,11.70
2018-05-10T09:30:26.813Z,8.07
2018-05-10T09:32:58.073Z,12.47
2018-05-10T09:35:29.323Z,12.37
2018-05-10T09:38:00.538Z,7.27
2018-05-10T09:40:32.099Z,8.23
2018-05-10T09:43:03.524Z,8.40
2018-05-10T09:45:34.680Z,9.83
2018-05-10T09:48:05.893Z,8.97
2018-05-10T09:50:37.871Z,8.17
2018-05-10T09:53:09.094Z,8.50
2018-05-10T09:55:41.062Z,11.73
2018-05-10T09:58:12.832Z,9.50
2018-05-10T10:00:44.020Z,9.80
2018-05-10T10:03:15.281Z,10.40
2018-05-10T10:05:46.457Z,8.67
2018-05-10T10:08:17.668Z,8.67
2018-05-10T10:10:49.155Z,7.17
2018-05-10T10:13:20.336Z,9.40
2018-05-10T10:15:52.053Z,8.90
2018-05-10T10:18:23.298Z,9.83
2018-05-10T10:20:54.454Z,8.97
2018-05-10T10:23:25.753Z,8.03
2018-05-10T10:25:56.931Z,9.07
2018-05-10T10:28:28.128Z,8.63
2018-05-10T10:30:59.360Z,13.27
2018-05-10T10:33:30.621Z,9.17
2018-05-10T10:36:02.329Z,9.53
2018-05-10T10:38:33.520Z,7.57
2018-05-10T10:41:04.955Z,11.37
2018-05-10T10:43:36.137Z,8.27
2018-05-10T10:46:08.059Z,10.17
2018-05-10T10:48:39.280Z,12.03
2018-05-10T10:51:10.478Z,9.43
2018-05-10T10:53:42.451Z,9.50
2018-05-10T10:56:13.722Z,10.07
2018-05-10T10:58:44.983Z,10.50
2018-05-10T11:01:16.159Z,8.17
2018-05-10T11:03:47.543Z,12.97
2018-05-10T11:06:18.769Z,6.57
2018-05-10T11:08:50.724Z,9.07
2018-05-10T11:11:22.718Z,15.00
2018-05-10T11:13:53.996Z,10.40
2018-05-10T11:16:25.188Z,9.70
2018-05-10T11:18:57.375Z,12.67
2018-05-10T11:21:28.556Z,8.90
2018-05-10T11:24:00.170Z,8.17
2018-05-10T11:26:31.343Z,13.93
2018-05-10T11:29:02.870Z,11.83
2018-05-10T11:31:34.231Z,8.13
2018-05-10T11:34:05.497Z,8.77
2018-05-10T11:36:36.819Z,9.53
2018-05-10T11:39:08.087Z,10.00
2018-05-10T11:41:39.350Z,11.23
2018-05-10T11:44:11.268Z,10.00
2018-05-10T11:46:42.482Z,9.60
2018-05-10T11:49:13.702Z,10.53
2018-05-10T11:51:44.934Z,15.90
2018-05-10T11:54:16.953Z,14.50
2018-05-10T11:56:48.200Z,11.03
2018-05-10T11:59:19.368Z,11.97
2018-05-10T12:01:50.631Z,11.80
2018-05-10T12:04:22.993Z,11.10
2018-05-10T12:06:54.193Z,13.10
2018-05-10T12:09:25.424Z,12.10
2018-05-10T12:11:56.805Z,9.73
2018-05-10T12:14:27.989Z,8.90
2018-05-10T12:16:59.300Z,12.63
2018-05-10T12:19:30.478Z,10.70
2018-05-10T12:22:01.701Z,13.07
2018-05-10T12:24:32.877Z,11.43
2018-05-10T12:27:05.284Z,10.17
2018-05-10T12:29:36.505Z,12.87
2018-05-10T12:32:08.607Z,10.03
2018-05-10T12:34:40.230Z,9.07
2018-05-10T12:37:11.483Z,11.60
2018-05-10T12:39:42.707Z,11.47
2018-05-10T12:42:14.661Z,10.27
2018-05-10T12:44:46.578Z,9.13
2018-05-10T12:47:18.099Z,16.77
2018-05-10T12:49:49.248Z,19.20
2018-05-10T12:52:20.630Z,20.83
2018-05-10T12:54:51.816Z,14.13
2018-05-10T12:57:23.116Z,9.67
2018-05-10T12:59:54.366Z,12.27
2018-05-10T13:02:25.576Z,11.37
2018-05-10T13:04:57.111Z,8.93
2018-05-10T13:07:28.291Z,11.83
2018-05-10T13:09:59.545Z,12.93
2018-05-10T13:12:30.769Z,13.80
2018-05-10T13:15:02.011Z,14.70
2018-05-10T13:17:33.233Z,10.97
2018-05-10T13:20:04.997Z,16.63
2018-05-10T13:22:36.159Z,15.23
2018-05-10T13:25:07.473Z,15.47
2018-05-10T13:27:38.650Z,21.30
2018-05-10T13:30:09.908Z,12.47
2018-05-10T13:32:41.121Z,13.13
2018-05-10T13:35:12.335Z,27.33
2018-05-10T13:37:43.798Z,24.47
2018-05-10T13:40:15.022Z,17.80
2018-05-10T13:42:46.978Z,17.03
2018-05-10T13:45:18.973Z,12.73
2018-05-10T13:47:50.242Z,15.37
2018-05-10T13:50:21.437Z,10.73
2018-05-10T13:52:53.497Z,9.77
2018-05-10T13:55:25.736Z,8.30
2018-05-10T13:57:57.041Z,8.87
2018-05-10T14:00:28.313Z,11.60
2018-05-10T14:02:59.497Z,12.37
2018-05-10T14:05:30.718Z,19.17
2018-05-10T14:08:01.894Z,23.23
2018-05-10T14:10:34.076Z,17.57
2018-05-10T14:13:05.347Z,12.63
2018-05-10T14:15:36.618Z,8.73
2018-05-10T14:18:08.655Z,12.80
2018-05-10T14:20:39.843Z,10.93
2018-05-10T14:23:11.781Z,9.20
2018-05-10T14:25:42.961Z,12.33
2018-05-10T14:28:14.189Z,10.90
2018-05-10T14:30:45.336Z,9.60
2018-05-10T14:33:17.360Z,9.33
2018-05-10T14:35:48.543Z,8.93
2018-05-10T14:38:20.571Z,20.60
2018-05-10T14:40:51.823Z,17.03
2018-05-10T14:43:22.995Z,14.90
2018-05-10T14:45:55.006Z,17.63
2018-05-10T14:48:26.207Z,16.93
2018-05-10T14:50:58.189Z,16.23
2018-05-10T14:53:29.402Z,20.23
2018-05-10T14:56:01.336Z,34.20
2018-05-10T14:58:32.838Z,16.87
2018-05-10T15:01:04.022Z,14.90
2018-05-10T15:03:35.240Z,9.60
2018-05-10T15:06:06.444Z,7.70
2018-05-10T15:08:38.428Z,7.50
2018-05-10T15:11:09.601Z,7.97
2018-05-10T15:13:40.836Z,10.63
2018-05-10T15:16:12.173Z,10.43
2018-05-10T15:18:43.447Z,14.87
2018-05-10T15:21:14.625Z,10.53
2018-05-10T15:23:46.625Z,13.23
2018-05-10T15:26:18.571Z,11.10
2018-05-10T15:28:50.127Z,11.73
2018-05-10T15:31:21.322Z,12.60
2018-05-10T15:33:52.938Z,14.53
2018-05-10T15:36:24.139Z,15.73
2018-05-10T15:38:56.291Z,14.93
2018-05-10T15:41:28.238Z,11.60
2018-05-10T15:43:59.401Z,12.27
2018-05-10T15:46:31.384Z,7.53
2018-05-10T15:49:02.609Z,13.13
2018-05-10T15:51:33.821Z,14.50
2018-05-10T15:54:04.998Z,12.97
2018-05-10T15:56:36.207Z,14.40
2018-05-10T15:59:08.258Z,12.63
2018-05-10T16:01:39.817Z,15.13
2018-05-10T16:04:10.994Z,13.40
2018-05-10T16:06:42.428Z,11.70
2018-05-10T16:09:14.263Z,16.87
2018-05-10T16:11:46.969Z,11.90
2018-05-10T16:14:19.074Z,13.67
2018-05-10T16:16:50.300Z,12.10
2018-05-10T16:19:22.363Z,15.83
2018-05-10T16:21:54.312Z,12.33
2018-05-10T16:24:25.523Z,9.97
2018-05-10T16:26:56.982Z,10.87
2018-05-10T16:29:28.237Z,8.80
2018-05-10T16:31:59.455Z,10.73
2018-05-10T16:34:30.685Z,7.87
2018-05-10T16:37:01.917Z,9.73
2018-05-10T16:39:33.218Z,8.83
2018-05-10T16:42:04.432Z,9.97
2018-05-10T16:44:35.612Z,9.30
2018-05-10T16:47:07.113Z,9.87
2018-05-10T16:49:38.282Z,7.50
2018-05-10T16:52:09.496Z,8.30
2018-05-10T16:54:40.794Z,7.23
2018-05-10T16:57:12.384Z,11.00
2018-05-10T16:59:43.617Z,7.87
2018-05-10T17:02:15.578Z,18.00
2018-05-10T17:04:46.746Z,15.97
2018-05-10T17:07:17.954Z,23.50
2018-05-10T17:09:49.921Z,14.77
2018-05-10T17:12:22.250Z,6.93
2018-05-10T17:14:53.419Z,22.63
2018-05-10T17:17:24.653Z,7.17
2018-05-10T17:19:57.587Z,7.80
2018-05-10T17:22:28.794Z,6.83
2018-05-10T17:25:00.190Z,10.37
2018-05-10T17:27:31.751Z,10.17
2018-05-10T17:30:03.074Z,10.40
2018-05-10T17:32:34.312Z,35.07
2018-05-10T17:35:05.570Z,13.57
2018-05-10T17:37:36.771Z,12.27
2018-05-10T17:40:08.508Z,20.07
2018-05-10T17:42:39.769Z,13.63
2018-05-10T17:45:11.046Z,11.50
2018-05-10T17:47:42.292Z,9.47
2018-05-10T17:50:13.550Z,21.60
2018-05-10T17:52:44.722Z,11.03
2018-05-10T17:55:15.995Z,11.13
2018-05-10T17:57:47.239Z,16.87
2018-05-10T18:00:19.376Z,10.70
2018-05-10T18:02:50.542Z,15.13
2018-05-10T18:05:22.546Z,11.40
2018-05-10T18:07:53.834Z,12.90
2018-05-10T18:10:25.042Z,10.40
2018-05-10T18:12:56.289Z,9.90
2018-05-10T18:15:27.543Z,14.93
2018-05-10T18:17:58.711Z,17.47
2018-05-10T18:20:30.070Z,12.57
2018-05-10T18:23:01.394Z,14.90
2018-05-10T18:25:33.405Z,14.70
2018-05-10T18:28:05.394Z,13.90
2018-05-10T18:30:36.630Z,19.03
2018-05-10T18:33:07.847Z,22.37
2018-05-10T18:35:39.174Z,32.83
2018-05-10T18:38:11.970Z,61.83
2018-05-10T18:40:44.339Z,58.97
2018-05-10T18:43:15.556Z,56.87
2018-05-10T18:45:46.802Z,227.03
2018-05-10T18:48:18.016Z,108.10
2018-05-10T18:50:50.214Z,107.50
2018-05-10T18:53:21.443Z,96.90
2018-05-10T18:55:52.681Z,84.97
2018-05-10T18:58:23.860Z,53.57
2018-05-10T19:00:55.821Z,40.50
2018-05-10T19:03:27.757Z,30.73
2018-05-10T19:05:59.042Z,37.27
2018-05-10T19:08:31.041Z,35.63
2018-05-10T19:11:02.233Z,34.17
2018-05-10T19:13:34.193Z,37.37
2018-05-10T19:16:06.153Z,35.53
2018-05-10T19:18:37.320Z,35.17
2018-05-10T19:21:08.982Z,33.93
2018-05-10T19:23:40.152Z,32.93
2018-05-10T19:26:11.527Z,34.93
2018-05-10T19:28:42.754Z,37.83
2018-05-10T19:31:17.097Z,36.43
2018-05-10T19:33:48.386Z,35.20
2018-05-10T19:36:19.575Z,34.43
2018-05-10T19:38:50.778Z,31.00
2018-05-10T19:41:22.044Z,33.93
2018-05-10T19:43:53.246Z,31.10
2018-05-10T19:46:24.545Z,31.90
2018-05-10T19:48:55.750Z,27.70
2018-05-10T19:51:26.937Z,31.50
2018-05-10T19:53:58.146Z,32.20
2018-05-10T19:56:29.350Z,26.83
2018-05-10T19:59:00.562Z,24.33
2018-05-10T20:01:31.764Z,23.63
2018-05-10T20:04:03.239Z,23.03
2018-05-10T20:06:34.433Z,21.97
2018-05-10T20:09:05.654Z,22.93
2018-05-10T20:11:36.838Z,22.93
2018-05-10T20:14:09.213Z,22.57
2018-05-10T20:16:40.418Z,22.57
2018-05-10T20:19:11.610Z,21.37
2018-05-10T20:21:42.994Z,23.10
2018-05-10T20:24:14.208Z,23.57
2018-05-10T20:26:45.467Z,22.03
2018-05-10T20:29:16.663Z,20.67
2018-05-10T20:31:48.620Z,18.07
2018-05-10T20:34:19.845Z,17.83
2018-05-10T20:36:51.023Z,18.87
2018-05-10T20:39:23.306Z,18.93
2018-05-10T20:41:54.555Z,19.50
2018-05-10T20:44:26.097Z,18.47
2018-05-10T20:46:57.249Z,22.40
2018-05-10T20:49:28.793Z,20.03
2018-05-10T20:51:59.994Z,19.03
2018-05-10T20:54:31.197Z,19.23
2018-05-10T20:57:02.374Z,19.30
2018-05-10T20:59:33.590Z,21.97
2018-05-10T21:02:04.834Z,18.80
2018-05-10T21:04:36.002Z,21.17
2018-05-10T21:07:07.227Z,19.07
2018-05-10T21:09:38.425Z,20.63
2018-05-10T21:12:22.819Z,20.87
2018-05-10T21:14:54.057Z,21.07
2018-05-10T21:17:25.382Z,25.23
2018-05-10T21:19:56.625Z,21.90
2018-05-10T21:22:27.965Z,21.87
2018-05-10T21:24:59.140Z,21.53
2018-05-10T21:27:30.359Z,21.87
2018-05-10T21:30:02.244Z,20.23
2018-05-10T21:32:33.502Z,22.30
2018-05-10T21:35:04.669Z,23.97
2018-05-10T21:37:35.986Z,24.20
2018-05-10T21:40:07.199Z,21.77
2018-05-10T21:42:38.502Z,24.07
2018-05-10T21:45:10.003Z,22.57
2018-05-10T21:47:41.174Z,23.50
2018-05-10T21:50:12.415Z,24.13
2018-05-10T21:52:43.607Z,26.50
2018-05-10T21:55:15.545Z,26.97
2018-05-10T21:57:46.734Z,30.37
2018-05-10T22:00:18.346Z,33.43
2018-05-10T22:02:49.628Z,31.50
2018-05-10T22:05:21.217Z,31.80
2018-05-10T22:07:52.387Z,29.93
2018-05-10T22:10:26.150Z,34.07
2018-05-10T22:12:57.576Z,31.73
2018-05-10T22:15:28.767Z,29.63
2018-05-10T22:17:59.938Z,29.77
2018-05-10T22:20:31.871Z,31.80
2018-05-10T22:23:03.242Z,31.07
2018-05-10T22:25:35.194Z,29.67
2018-05-10T22:28:07.105Z,29.57
2018-05-10T22:30:38.675Z,30.40
2018-05-10T22:33:09.842Z,29.83
2018-05-10T22:35:41.073Z,31.90
2018-05-10T22:38:12.342Z,31.87
2018-05-10T22:40:43.513Z,32.07
2018-05-10T22:43:15.079Z,32.23
2018-05-10T22:45:46.284Z,33.57
2018-05-10T22:48:17.561Z,32.57
2018-05-10T22:50:48.876Z,32.33
2018-05-10T22:53:20.909Z,35.03
2018-05-10T22:55:52.427Z,35.47
2018-05-10T22:58:23.602Z,38.07
2018-05-10T23:00:54.898Z,36.20
2018-05-10T23:03:26.894Z,40.77
2018-05-10T23:05:58.082Z,40.33
2018-05-10T23:08:29.996Z,35.47
2018-05-10T23:11:01.196Z,39.17
2018-05-10T23:13:33.158Z,36.13
2018-05-10T23:16:05.203Z,36.03
2018-05-10T23:18:36.588Z,36.87
2018-05-10T23:21:07.947Z,40.77
2018-05-10T23:23:39.417Z,31.00
2018-05-10T23:26:10.624Z,38.93
2018-05-10T23:28:41.865Z,37.70
2018-05-10T23:31:13.573Z,36.07
2018-05-10T23:33:45.694Z,36.90
2018-05-10T23:36:17.957Z,35.43
2018-05-10T23:38:49.150Z,36.07
2018-05-10T23:41:20.327Z,39.07
2018-05-10T23:43:52.403Z,36.33
2018-05-10T23:46:24.314Z,34.23
2018-05-10T23:48:55.527Z,40.00
2018-05-10T23:51:26.703Z,31.53
2018-05-10T23:53:57.997Z,36.07
2018-05-10T23:56:29.173Z,33.97
2018-05-10T23:59:00.404Z,39.17
